sensor_id;sensor_type;location;lat;lon;timestamp;P1;durP1;ratioP1;P2;durP2;ratioP2
50126;SDS011;36024;47.974;16.398;2022-07-29T00:02:16;6.00;;;5.50;;
50126;SDS011;36024;47.974;16.398;2022-07-29T00:04:42;5.93;;;5.53;;
50126;SDS011;36024;47.974;16.398;2022-07-29T00:07:09;5.90;;;5.43;;
50126;SDS011;36024;47.974;16.398;2022-07-29T00:09:38;6.07;;;5.57;;
50126;SDS011;36024;47.974;16.398;2022-07-29T00:12:17;5.87;;;5.40;;
50126;SDS011;36024;47.974;16.398;2022-07-29T00:14:55;6.17;;;5.67;;
50126;SDS011;36024;47.974;16.398;2022-07-29T00:17:22;6.30;;;5.90;;
50126;SDS011;36024;47.974;16.398;2022-07-29T00:19:49;6.20;;;5.67;;
50126;SDS011;36024;47.974;16.398;2022-07-29T00:22:16;6.57;;;5.87;;
50126;SDS011;36024;47.974;16.398;2022-07-29T00:24:43;6.57;;;6.03;;
50126;SDS011;36024;47.974;16.398;2022-07-29T00:27:10;6.17;;;5.77;;
50126;SDS011;36024;47.974;16.398;2022-07-29T00:29:36;6.13;;;5.63;;
50126;SDS011;36024;47.974;16.398;2022-07-29T00:32:03;6.80;;;6.30;;
50126;SDS011;36024;47.974;16.398;2022-07-29T00:34:30;6.40;;;5.77;;
50126;SDS011;36024;47.974;16.398;2022-07-29T00:37:15;7.10;;;6.40;;
50126;SDS011;36024;47.974;16.398;2022-07-29T00:39:42;6.93;;;6.33;;
50126;SDS011;36024;47.974;16.398;2022-07-29T00:42:09;7.80;;;6.10;;
50126;SDS011;36024;47.974;16.398;2022-07-29T00:44:37;6.70;;;6.10;;
50126;SDS011;36024;47.974;16.398;2022-07-29T00:47:04;6.97;;;6.27;;
50126;SDS011;36024;47.974;16.398;2022-07-29T00:49:31;6.40;;;5.80;;
50126;SDS011;36024;47.974;16.398;2022-07-29T00:52:00;6.53;;;6.03;;
50126;SDS011;36024;47.974;16.398;2022-07-29T00:54:28;6.73;;;6.13;;
50126;SDS011;36024;47.974;16.398;2022-07-29T00:56:58;6.97;;;6.37;;
50126;SDS011;36024;47.974;16.398;2022-07-29T00:59:25;6.70;;;6.10;;
50126;SDS011;36024;47.974;16.398;2022-07-29T01:02:00;7.60;;;6.30;;
50126;SDS011;36024;47.974;16.398;2022-07-29T01:04:28;7.20;;;6.60;;
50126;SDS011;36024;47.974;16.398;2022-07-29T01:06:56;7.57;;;6.97;;
50126;SDS011;36024;47.974;16.398;2022-07-29T01:09:22;7.27;;;6.60;;
50126;SDS011;36024;47.974;16.398;2022-07-29T01:12:09;7.67;;;6.97;;
50126;SDS011;36024;47.974;16.398;2022-07-29T01:14:36;7.33;;;6.73;;
50126;SDS011;36024;47.974;16.398;2022-07-29T01:17:26;7.53;;;6.93;;
50126;SDS011;36024;47.974;16.398;2022-07-29T01:19:56;7.40;;;6.70;;
50126;SDS011;36024;47.974;16.398;2022-07-29T01:25:20;8.10;;;7.30;;
50126;SDS011;36024;47.974;16.398;2022-07-29T01:30:44;8.00;;;7.30;;
50126;SDS011;36024;47.974;16.398;2022-07-29T01:33:13;7.97;;;7.20;;
50126;SDS011;36024;47.974;16.398;2022-07-29T01:36:01;8.93;;;7.10;;
50126;SDS011;36024;47.974;16.398;2022-07-29T01:38:33;7.80;;;7.10;;
50126;SDS011;36024;47.974;16.398;2022-07-29T01:41:05;8.20;;;7.50;;
50126;SDS011;36024;47.974;16.398;2022-07-29T01:43:40;7.97;;;7.33;;
50126;SDS011;36024;47.974;16.398;2022-07-29T01:46:12;8.23;;;7.50;;
50126;SDS011;36024;47.974;16.398;2022-07-29T01:48:45;7.77;;;7.17;;
50126;SDS011;36024;47.974;16.398;2022-07-29T01:51:16;7.63;;;7.03;;
50126;SDS011;36024;47.974;16.398;2022-07-29T01:53:50;8.03;;;7.40;;
50126;SDS011;36024;47.974;16.398;2022-07-29T01:56:21;8.20;;;7.50;;
50126;SDS011;36024;47.974;16.398;2022-07-29T01:58:49;8.30;;;7.60;;
50126;SDS011;36024;47.974;16.398;2022-07-29T02:01:18;8.57;;;7.83;;
50126;SDS011;36024;47.974;16.398;2022-07-29T02:03:46;8.77;;;7.87;;
50126;SDS011;36024;47.974;16.398;2022-07-29T02:06:14;7.93;;;7.33;;
50126;SDS011;36024;47.974;16.398;2022-07-29T02:08:43;9.93;;;7.70;;
50126;SDS011;36024;47.974;16.398;2022-07-29T02:11:10;8.73;;;7.87;;
50126;SDS011;36024;47.974;16.398;2022-07-29T02:13:37;8.43;;;7.73;;
50126;SDS011;36024;47.974;16.398;2022-07-29T02:16:05;9.83;;;8.83;;
50126;SDS011;36024;47.974;16.398;2022-07-29T02:18:33;8.73;;;7.90;;
50126;SDS011;36024;47.974;16.398;2022-07-29T02:21:03;8.13;;;7.37;;
50126;SDS011;36024;47.974;16.398;2022-07-29T02:23:30;8.37;;;7.63;;
50126;SDS011;36024;47.974;16.398;2022-07-29T02:26:17;9.17;;;8.13;;
50126;SDS011;36024;47.974;16.398;2022-07-29T02:28:44;8.77;;;7.87;;
50126;SDS011;36024;47.974;16.398;2022-07-29T02:31:11;8.70;;;7.80;;
50126;SDS011;36024;47.974;16.398;2022-07-29T02:33:38;8.07;;;7.43;;
50126;SDS011;36024;47.974;16.398;2022-07-29T02:36:06;8.90;;;8.20;;
50126;SDS011;36024;47.974;16.398;2022-07-29T02:38:33;8.67;;;7.83;;
50126;SDS011;36024;47.974;16.398;2022-07-29T02:41:20;9.10;;;8.30;;
50126;SDS011;36024;47.974;16.398;2022-07-29T02:43:50;8.00;;;7.30;;
50126;SDS011;36024;47.974;16.398;2022-07-29T02:46:26;9.10;;;8.27;;
50126;SDS011;36024;47.974;16.398;2022-07-29T02:49:10;8.43;;;7.83;;
50126;SDS011;36024;47.974;16.398;2022-07-29T02:52:00;9.10;;;8.30;;
50126;SDS011;36024;47.974;16.398;2022-07-29T02:54:31;9.17;;;7.80;;
50126;SDS011;36024;47.974;16.398;2022-07-29T02:57:00;9.50;;;8.60;;
50126;SDS011;36024;47.974;16.398;2022-07-29T02:59:30;9.73;;;8.53;;
50126;SDS011;36024;47.974;16.398;2022-07-29T03:01:59;8.63;;;7.80;;
50126;SDS011;36024;47.974;16.398;2022-07-29T03:04:26;8.67;;;7.97;;
50126;SDS011;36024;47.974;16.398;2022-07-29T03:06:55;8.70;;;7.90;;
50126;SDS011;36024;47.974;16.398;2022-07-29T03:09:24;9.70;;;8.70;;
50126;SDS011;36024;47.974;16.398;2022-07-29T03:11:51;9.50;;;8.50;;
50126;SDS011;36024;47.974;16.398;2022-07-29T03:14:20;9.27;;;8.37;;
50126;SDS011;36024;47.974;16.398;2022-07-29T03:16:49;9.30;;;8.50;;
50126;SDS011;36024;47.974;16.398;2022-07-29T03:19:17;9.47;;;8.63;;
50126;SDS011;36024;47.974;16.398;2022-07-29T03:21:44;9.77;;;8.87;;
50126;SDS011;36024;47.974;16.398;2022-07-29T03:24:21;9.40;;;8.67;;
50126;SDS011;36024;47.974;16.398;2022-07-29T03:26:51;9.10;;;8.30;;
50126;SDS011;36024;47.974;16.398;2022-07-29T03:29:17;9.60;;;8.57;;
50126;SDS011;36024;47.974;16.398;2022-07-29T03:31:45;9.40;;;8.50;;
50126;SDS011;36024;47.974;16.398;2022-07-29T03:34:13;9.17;;;8.40;;
50126;SDS011;36024;47.974;16.398;2022-07-29T03:36:40;9.17;;;8.47;;
50126;SDS011;36024;47.974;16.398;2022-07-29T03:39:08;9.33;;;8.50;;
50126;SDS011;36024;47.974;16.398;2022-07-29T03:41:35;8.93;;;8.23;;
50126;SDS011;36024;47.974;16.398;2022-07-29T03:44:03;9.40;;;8.60;;
50126;SDS011;36024;47.974;16.398;2022-07-29T03:46:31;9.73;;;8.90;;
50126;SDS011;36024;47.974;16.398;2022-07-29T03:49:00;9.30;;;8.40;;
50126;SDS011;36024;47.974;16.398;2022-07-29T03:51:27;9.10;;;8.23;;
50126;SDS011;36024;47.974;16.398;2022-07-29T03:54:00;9.33;;;8.43;;
50126;SDS011;36024;47.974;16.398;2022-07-29T03:56:36;9.10;;;8.40;;
50126;SDS011;36024;47.974;16.398;2022-07-29T03:59:04;9.47;;;8.67;;
50126;SDS011;36024;47.974;16.398;2022-07-29T04:01:32;9.70;;;8.90;;
50126;SDS011;36024;47.974;16.398;2022-07-29T04:04:00;9.67;;;8.87;;
50126;SDS011;36024;47.974;16.398;2022-07-29T04:06:27;9.07;;;8.33;;
50126;SDS011;36024;47.974;16.398;2022-07-29T04:08:54;9.87;;;8.93;;
50126;SDS011;36024;47.974;16.398;2022-07-29T04:11:20;8.87;;;8.13;;
50126;SDS011;36024;47.974;16.398;2022-07-29T04:13:47;8.80;;;8.10;;
50126;SDS011;36024;47.974;16.398;2022-07-29T04:16:14;8.63;;;7.93;;
50126;SDS011;36024;47.974;16.398;2022-07-29T04:18:40;8.80;;;8.03;;
50126;SDS011;36024;47.974;16.398;2022-07-29T04:21:07;9.00;;;8.20;;
50126;SDS011;36024;47.974;16.398;2022-07-29T04:23:34;8.37;;;7.57;;
50126;SDS011;36024;47.974;16.398;2022-07-29T04:26:13;8.77;;;7.93;;
50126;SDS011;36024;47.974;16.398;2022-07-29T04:28:39;8.73;;;7.93;;
50126;SDS011;36024;47.974;16.398;2022-07-29T04:31:08;8.40;;;7.70;;
50126;SDS011;36024;47.974;16.398;2022-07-29T04:33:36;8.13;;;7.50;;
50126;SDS011;36024;47.974;16.398;2022-07-29T04:36:02;8.37;;;7.63;;
50126;SDS011;36024;47.974;16.398;2022-07-29T04:38:49;8.80;;;7.90;;
50126;SDS011;36024;47.974;16.398;2022-07-29T04:41:16;7.93;;;7.40;;
50126;SDS011;36024;47.974;16.398;2022-07-29T04:43:46;8.67;;;7.97;;
50126;SDS011;36024;47.974;16.398;2022-07-29T04:46:12;8.60;;;7.83;;
50126;SDS011;36024;47.974;16.398;2022-07-29T04:48:39;8.80;;;7.93;;
50126;SDS011;36024;47.974;16.398;2022-07-29T04:51:06;8.63;;;7.93;;
50126;SDS011;36024;47.974;16.398;2022-07-29T04:53:33;8.20;;;7.40;;
50126;SDS011;36024;47.974;16.398;2022-07-29T04:55:59;8.43;;;7.63;;
50126;SDS011;36024;47.974;16.398;2022-07-29T04:58:26;8.20;;;7.50;;
50126;SDS011;36024;47.974;16.398;2022-07-29T05:00:53;7.73;;;6.97;;
50126;SDS011;36024;47.974;16.398;2022-07-29T05:03:19;8.00;;;7.40;;
50126;SDS011;36024;47.974;16.398;2022-07-29T05:05:46;7.73;;;7.03;;
50126;SDS011;36024;47.974;16.398;2022-07-29T05:08:13;7.43;;;6.93;;
50126;SDS011;36024;47.974;16.398;2022-07-29T05:10:39;8.05;;;7.22;;
50126;SDS011;36024;47.974;16.398;2022-07-29T05:13:06;7.90;;;7.20;;
50126;SDS011;36024;47.974;16.398;2022-07-29T05:15:34;8.00;;;7.40;;
50126;SDS011;36024;47.974;16.398;2022-07-29T05:18:01;7.43;;;6.93;;
50126;SDS011;36024;47.974;16.398;2022-07-29T05:20:28;8.88;;;7.60;;
50126;SDS011;36024;47.974;16.398;2022-07-29T05:22:59;8.53;;;7.73;;
50126;SDS011;36024;47.974;16.398;2022-07-29T05:25:27;7.88;;;7.28;;
50126;SDS011;36024;47.974;16.398;2022-07-29T05:28:10;8.63;;;7.70;;
50126;SDS011;36024;47.974;16.398;2022-07-29T05:30:37;8.10;;;7.25;;
50126;SDS011;36024;47.974;16.398;2022-07-29T05:33:04;8.55;;;7.60;;
50126;SDS011;36024;47.974;16.398;2022-07-29T05:35:31;9.02;;;8.23;;
50126;SDS011;36024;47.974;16.398;2022-07-29T05:37:58;8.35;;;7.63;;
50126;SDS011;36024;47.974;16.398;2022-07-29T05:40:24;7.63;;;7.00;;
50126;SDS011;36024;47.974;16.398;2022-07-29T05:42:51;7.95;;;7.15;;
50126;SDS011;36024;47.974;16.398;2022-07-29T05:45:18;8.18;;;7.38;;
50126;SDS011;36024;47.974;16.398;2022-07-29T05:47:44;7.88;;;7.18;;
50126;SDS011;36024;47.974;16.398;2022-07-29T05:50:11;8.50;;;7.70;;
50126;SDS011;36024;47.974;16.398;2022-07-29T05:52:38;7.95;;;7.35;;
50126;SDS011;36024;47.974;16.398;2022-07-29T05:55:05;8.73;;;7.88;;
50126;SDS011;36024;47.974;16.398;2022-07-29T05:57:32;8.05;;;7.25;;
50126;SDS011;36024;47.974;16.398;2022-07-29T05:59:59;9.77;;;7.72;;
50126;SDS011;36024;47.974;16.398;2022-07-29T06:02:26;7.93;;;7.32;;
50126;SDS011;36024;47.974;16.398;2022-07-29T06:04:52;8.77;;;7.97;;
50126;SDS011;36024;47.974;16.398;2022-07-29T06:07:20;9.20;;;7.70;;
50126;SDS011;36024;47.974;16.398;2022-07-29T06:09:46;8.30;;;7.65;;
50126;SDS011;36024;47.974;16.398;2022-07-29T06:12:13;7.68;;;7.07;;
50126;SDS011;36024;47.974;16.398;2022-07-29T06:14:40;7.40;;;6.78;;
50126;SDS011;36024;47.974;16.398;2022-07-29T06:17:07;7.32;;;6.70;;
50126;SDS011;36024;47.974;16.398;2022-07-29T06:19:34;7.07;;;6.47;;
50126;SDS011;36024;47.974;16.398;2022-07-29T06:22:01;6.97;;;6.30;;
50126;SDS011;36024;47.974;16.398;2022-07-29T06:24:28;6.72;;;6.07;;
50126;SDS011;36024;47.974;16.398;2022-07-29T06:26:55;6.40;;;5.70;;
50126;SDS011;36024;47.974;16.398;2022-07-29T06:29:22;6.38;;;5.80;;
50126;SDS011;36024;47.974;16.398;2022-07-29T06:31:48;6.38;;;5.80;;
50126;SDS011;36024;47.974;16.398;2022-07-29T06:34:15;6.13;;;5.63;;
50126;SDS011;36024;47.974;16.398;2022-07-29T06:36:43;6.22;;;5.60;;
50126;SDS011;36024;47.974;16.398;2022-07-29T06:39:11;6.32;;;5.35;;
50126;SDS011;36024;47.974;16.398;2022-07-29T06:41:38;6.15;;;5.60;;
50126;SDS011;36024;47.974;16.398;2022-07-29T06:44:08;5.90;;;5.35;;
50126;SDS011;36024;47.974;16.398;2022-07-29T06:46:37;5.97;;;5.47;;
50126;SDS011;36024;47.974;16.398;2022-07-29T06:49:06;6.50;;;6.00;;
50126;SDS011;36024;47.974;16.398;2022-07-29T06:51:33;6.75;;;6.07;;
50126;SDS011;36024;47.974;16.398;2022-07-29T06:54:00;6.47;;;5.97;;
50126;SDS011;36024;47.974;16.398;2022-07-29T06:56:29;6.38;;;5.65;;
50126;SDS011;36024;47.974;16.398;2022-07-29T06:59:08;6.35;;;5.85;;
50126;SDS011;36024;47.974;16.398;2022-07-29T07:01:37;6.57;;;5.97;;
50126;SDS011;36024;47.974;16.398;2022-07-29T07:04:06;6.50;;;5.97;;
50126;SDS011;36024;47.974;16.398;2022-07-29T07:06:35;7.30;;;6.70;;
50126;SDS011;36024;47.974;16.398;2022-07-29T07:09:02;6.75;;;6.13;;
50126;SDS011;36024;47.974;16.398;2022-07-29T07:11:30;6.07;;;5.63;;
50126;SDS011;36024;47.974;16.398;2022-07-29T07:13:58;7.60;;;6.05;;
50126;SDS011;36024;47.974;16.398;2022-07-29T07:16:29;7.07;;;6.55;;
50126;SDS011;36024;47.974;16.398;2022-07-29T07:18:57;6.35;;;5.88;;
50126;SDS011;36024;47.974;16.398;2022-07-29T07:21:25;6.85;;;6.18;;
50126;SDS011;36024;47.974;16.398;2022-07-29T07:23:57;6.60;;;6.10;;
50126;SDS011;36024;47.974;16.398;2022-07-29T07:26:25;6.28;;;5.88;;
50126;SDS011;36024;47.974;16.398;2022-07-29T07:28:53;6.95;;;6.25;;
50126;SDS011;36024;47.974;16.398;2022-07-29T07:31:20;6.55;;;6.00;;
50126;SDS011;36024;47.974;16.398;2022-07-29T07:33:48;6.70;;;6.15;;
50126;SDS011;36024;47.974;16.398;2022-07-29T07:36:15;6.60;;;6.03;;
50126;SDS011;36024;47.974;16.398;2022-07-29T07:38:42;6.30;;;5.80;;
50126;SDS011;36024;47.974;16.398;2022-07-29T07:41:09;7.97;;;5.95;;
50126;SDS011;36024;47.974;16.398;2022-07-29T07:43:36;6.65;;;5.63;;
50126;SDS011;36024;47.974;16.398;2022-07-29T07:46:04;6.65;;;6.05;;
50126;SDS011;36024;47.974;16.398;2022-07-29T07:48:31;6.50;;;5.88;;
50126;SDS011;36024;47.974;16.398;2022-07-29T07:50:58;7.13;;;6.53;;
50126;SDS011;36024;47.974;16.398;2022-07-29T07:53:25;7.50;;;6.35;;
50126;SDS011;36024;47.974;16.398;2022-07-29T07:55:52;6.65;;;6.05;;
50126;SDS011;36024;47.974;16.398;2022-07-29T07:58:36;6.53;;;6.00;;
50126;SDS011;36024;47.974;16.398;2022-07-29T08:01:05;6.57;;;5.97;;
50126;SDS011;36024;47.974;16.398;2022-07-29T08:03:32;6.50;;;6.00;;
50126;SDS011;36024;47.974;16.398;2022-07-29T08:05:59;6.88;;;6.20;;
50126;SDS011;36024;47.974;16.398;2022-07-29T08:08:26;7.40;;;6.70;;
50126;SDS011;36024;47.974;16.398;2022-07-29T08:10:55;6.65;;;6.15;;
50126;SDS011;36024;47.974;16.398;2022-07-29T08:13:23;6.68;;;6.18;;
50126;SDS011;36024;47.974;16.398;2022-07-29T08:15:53;6.45;;;5.95;;
50126;SDS011;36024;47.974;16.398;2022-07-29T08:18:25;7.95;;;7.03;;
50126;SDS011;36024;47.974;16.398;2022-07-29T08:20:53;7.05;;;6.45;;
50126;SDS011;36024;47.974;16.398;2022-07-29T08:23:22;6.95;;;6.25;;
50126;SDS011;36024;47.974;16.398;2022-07-29T08:26:11;8.05;;;6.20;;
50126;SDS011;36024;47.974;16.398;2022-07-29T08:28:39;7.10;;;6.40;;
50126;SDS011;36024;47.974;16.398;2022-07-29T08:31:11;6.07;;;5.55;;
50126;SDS011;36024;47.974;16.398;2022-07-29T08:33:39;6.93;;;6.32;;
50126;SDS011;36024;47.974;16.398;2022-07-29T08:36:07;9.98;;;6.65;;
50126;SDS011;36024;47.974;16.398;2022-07-29T08:38:34;7.53;;;6.32;;
50126;SDS011;36024;47.974;16.398;2022-07-29T08:41:01;6.28;;;5.68;;
50126;SDS011;36024;47.974;16.398;2022-07-29T08:43:28;6.40;;;5.68;;
50126;SDS011;36024;47.974;16.398;2022-07-29T08:45:55;6.30;;;5.70;;
50126;SDS011;36024;47.974;16.398;2022-07-29T08:48:22;9.07;;;6.50;;
50126;SDS011;36024;47.974;16.398;2022-07-29T08:50:55;6.75;;;6.13;;
50126;SDS011;36024;47.974;16.398;2022-07-29T08:53:25;6.43;;;5.72;;
50126;SDS011;36024;47.974;16.398;2022-07-29T08:55:55;6.00;;;5.60;;
50126;SDS011;36024;47.974;16.398;2022-07-29T08:58:22;7.15;;;6.10;;
50126;SDS011;36024;47.974;16.398;2022-07-29T09:00:52;6.00;;;5.38;;
50126;SDS011;36024;47.974;16.398;2022-07-29T09:03:24;6.60;;;5.90;;
50126;SDS011;36024;47.974;16.398;2022-07-29T09:05:53;6.25;;;5.75;;
50126;SDS011;36024;47.974;16.398;2022-07-29T09:08:20;5.72;;;5.22;;
50126;SDS011;36024;47.974;16.398;2022-07-29T09:10:48;6.50;;;5.55;;
50126;SDS011;36024;47.974;16.398;2022-07-29T09:13:16;6.63;;;6.00;;
50126;SDS011;36024;47.974;16.398;2022-07-29T09:15:43;6.35;;;4.97;;
50126;SDS011;36024;47.974;16.398;2022-07-29T09:18:11;6.03;;;5.53;;
50126;SDS011;36024;47.974;16.398;2022-07-29T09:20:55;6.32;;;5.78;;
50126;SDS011;36024;47.974;16.398;2022-07-29T09:23:41;6.53;;;5.88;;
50126;SDS011;36024;47.974;16.398;2022-07-29T09:26:09;5.70;;;5.20;;
50126;SDS011;36024;47.974;16.398;2022-07-29T09:28:36;5.40;;;5.00;;
50126;SDS011;36024;47.974;16.398;2022-07-29T09:31:10;4.95;;;4.55;;
50126;SDS011;36024;47.974;16.398;2022-07-29T09:33:37;5.55;;;5.15;;
50126;SDS011;36024;47.974;16.398;2022-07-29T09:36:07;5.40;;;4.97;;
50126;SDS011;36024;47.974;16.398;2022-07-29T09:38:36;5.50;;;5.10;;
50126;SDS011;36024;47.974;16.398;2022-07-29T09:41:04;5.45;;;4.95;;
50126;SDS011;36024;47.974;16.398;2022-07-29T09:43:32;6.00;;;5.15;;
50126;SDS011;36024;47.974;16.398;2022-07-29T09:46:11;5.15;;;4.65;;
50126;SDS011;36024;47.974;16.398;2022-07-29T09:48:38;5.47;;;4.65;;
50126;SDS011;36024;47.974;16.398;2022-07-29T09:51:16;5.43;;;4.93;;
50126;SDS011;36024;47.974;16.398;2022-07-29T09:53:56;4.70;;;4.32;;
50126;SDS011;36024;47.974;16.398;2022-07-29T09:56:37;4.93;;;4.50;;
50126;SDS011;36024;47.974;16.398;2022-07-29T09:59:06;4.90;;;4.50;;
50126;SDS011;36024;47.974;16.398;2022-07-29T10:01:34;5.70;;;4.65;;
50126;SDS011;36024;47.974;16.398;2022-07-29T10:04:02;5.03;;;4.63;;
50126;SDS011;36024;47.974;16.398;2022-07-29T10:06:29;6.65;;;4.70;;
50126;SDS011;36024;47.974;16.398;2022-07-29T10:09:06;4.95;;;4.47;;
50126;SDS011;36024;47.974;16.398;2022-07-29T10:11:36;5.55;;;4.70;;
50126;SDS011;36024;47.974;16.398;2022-07-29T10:14:15;5.63;;;4.68;;
50126;SDS011;36024;47.974;16.398;2022-07-29T10:16:42;4.72;;;4.32;;
50126;SDS011;36024;47.974;16.398;2022-07-29T10:19:09;4.70;;;4.30;;
50126;SDS011;36024;47.974;16.398;2022-07-29T10:21:36;5.07;;;4.30;;
50126;SDS011;36024;47.974;16.398;2022-07-29T10:24:06;5.00;;;4.50;;
50126;SDS011;36024;47.974;16.398;2022-07-29T10:26:40;6.75;;;4.28;;
50126;SDS011;36024;47.974;16.398;2022-07-29T10:29:07;5.30;;;4.78;;
50126;SDS011;36024;47.974;16.398;2022-07-29T10:43:26;4.97;;;4.45;;
50126;SDS011;36024;47.974;16.398;2022-07-29T10:45:57;6.15;;;4.75;;
50126;SDS011;36024;47.974;16.398;2022-07-29T10:48:26;4.95;;;4.55;;
50126;SDS011;36024;47.974;16.398;2022-07-29T10:53:25;5.07;;;4.40;;
50126;SDS011;36024;47.974;16.398;2022-07-29T10:56:25;4.90;;;4.30;;
50126;SDS011;36024;47.974;16.398;2022-07-29T11:01:58;4.97;;;4.50;;
50126;SDS011;36024;47.974;16.398;2022-07-29T11:07:15;5.13;;;4.70;;
50126;SDS011;36024;47.974;16.398;2022-07-29T11:09:42;6.07;;;4.80;;
50126;SDS011;36024;47.974;16.398;2022-07-29T11:15:05;5.78;;;4.47;;
50126;SDS011;36024;47.974;16.398;2022-07-29T11:20:38;5.05;;;4.60;;
50126;SDS011;36024;47.974;16.398;2022-07-29T11:28:39;5.20;;;4.70;;
50126;SDS011;36024;47.974;16.398;2022-07-29T11:31:16;4.85;;;4.45;;
50126;SDS011;36024;47.974;16.398;2022-07-29T11:33:44;5.47;;;4.97;;
50126;SDS011;36024;47.974;16.398;2022-07-29T11:36:22;5.80;;;4.93;;
50126;SDS011;36024;47.974;16.398;2022-07-29T11:39:27;4.82;;;4.47;;
50126;SDS011;36024;47.974;16.398;2022-07-29T11:50:17;5.57;;;5.05;;
50126;SDS011;36024;47.974;16.398;2022-07-29T11:52:53;5.13;;;4.68;;
50126;SDS011;36024;47.974;16.398;2022-07-29T11:55:21;5.07;;;4.60;;
50126;SDS011;36024;47.974;16.398;2022-07-29T11:57:58;5.43;;;4.57;;
50126;SDS011;36024;47.974;16.398;2022-07-29T12:00:33;5.25;;;4.45;;
50126;SDS011;36024;47.974;16.398;2022-07-29T12:03:03;4.88;;;4.47;;
50126;SDS011;36024;47.974;16.398;2022-07-29T12:05:42;5.45;;;4.60;;
50126;SDS011;36024;47.974;16.398;2022-07-29T12:08:17;5.13;;;4.72;;
50126;SDS011;36024;47.974;16.398;2022-07-29T12:10:46;4.78;;;4.38;;
50126;SDS011;36024;47.974;16.398;2022-07-29T12:13:15;4.70;;;4.30;;
50126;SDS011;36024;47.974;16.398;2022-07-29T12:15:51;4.93;;;4.43;;
50126;SDS011;36024;47.974;16.398;2022-07-29T12:18:25;6.18;;;4.60;;
50126;SDS011;36024;47.974;16.398;2022-07-29T12:20:56;4.50;;;4.10;;
50126;SDS011;36024;47.974;16.398;2022-07-29T12:23:29;6.70;;;4.07;;
50126;SDS011;36024;47.974;16.398;2022-07-29T12:26:03;4.72;;;4.18;;
50126;SDS011;36024;47.974;16.398;2022-07-29T12:28:38;4.93;;;4.38;;
50126;SDS011;36024;47.974;16.398;2022-07-29T12:31:05;5.57;;;5.00;;
50126;SDS011;36024;47.974;16.398;2022-07-29T12:33:33;5.55;;;4.90;;
50126;SDS011;36024;47.974;16.398;2022-07-29T12:36:01;5.80;;;5.15;;
50126;SDS011;36024;47.974;16.398;2022-07-29T12:38:33;6.20;;;5.18;;
50126;SDS011;36024;47.974;16.398;2022-07-29T12:41:01;6.80;;;4.78;;
50126;SDS011;36024;47.974;16.398;2022-07-29T12:43:30;4.93;;;4.53;;
50126;SDS011;36024;47.974;16.398;2022-07-29T12:45:56;5.80;;;4.97;;
50126;SDS011;36024;47.974;16.398;2022-07-29T12:48:36;5.22;;;4.72;;
50126;SDS011;36024;47.974;16.398;2022-07-29T12:51:04;5.20;;;4.70;;
50126;SDS011;36024;47.974;16.398;2022-07-29T12:53:33;5.25;;;4.75;;
50126;SDS011;36024;47.974;16.398;2022-07-29T12:56:01;4.97;;;4.55;;
50126;SDS011;36024;47.974;16.398;2022-07-29T12:58:48;6.18;;;4.97;;
50126;SDS011;36024;47.974;16.398;2022-07-29T13:01:17;5.63;;;4.90;;
50126;SDS011;36024;47.974;16.398;2022-07-29T13:03:48;6.72;;;4.47;;
50126;SDS011;36024;47.974;16.398;2022-07-29T13:09:10;6.60;;;4.95;;
50126;SDS011;36024;47.974;16.398;2022-07-29T13:11:45;8.80;;;5.38;;
50126;SDS011;36024;47.974;16.398;2022-07-29T13:14:28;6.68;;;4.82;;
50126;SDS011;36024;47.974;16.398;2022-07-29T13:17:02;4.93;;;4.53;;
50126;SDS011;36024;47.974;16.398;2022-07-29T13:19:34;7.10;;;3.90;;
50126;SDS011;36024;47.974;16.398;2022-07-29T13:22:20;7.00;;;4.80;;
50126;SDS011;36024;47.974;16.398;2022-07-29T13:27:20;5.13;;;4.60;;
50126;SDS011;36024;47.974;16.398;2022-07-29T13:29:51;6.07;;;4.60;;
50126;SDS011;36024;47.974;16.398;2022-07-29T13:32:19;5.65;;;4.60;;
50126;SDS011;36024;47.974;16.398;2022-07-29T13:34:54;7.07;;;4.82;;
50126;SDS011;36024;47.974;16.398;2022-07-29T13:37:22;9.68;;;5.20;;
50126;SDS011;36024;47.974;16.398;2022-07-29T13:39:48;9.25;;;4.97;;
50126;SDS011;36024;47.974;16.398;2022-07-29T13:42:18;7.45;;;5.03;;
50126;SDS011;36024;47.974;16.398;2022-07-29T13:44:45;5.80;;;4.82;;
50126;SDS011;36024;47.974;16.398;2022-07-29T13:47:12;5.20;;;4.55;;
50126;SDS011;36024;47.974;16.398;2022-07-29T13:49:39;6.28;;;5.20;;
50126;SDS011;36024;47.974;16.398;2022-07-29T13:52:05;7.97;;;5.07;;
50126;SDS011;36024;47.974;16.398;2022-07-29T13:54:34;7.85;;;5.60;;
50126;SDS011;36024;47.974;16.398;2022-07-29T13:57:07;8.43;;;5.70;;
50126;SDS011;36024;47.974;16.398;2022-07-29T13:59:35;8.90;;;6.00;;
50126;SDS011;36024;47.974;16.398;2022-07-29T14:02:01;7.38;;;5.68;;
50126;SDS011;36024;47.974;16.398;2022-07-29T14:04:28;10.00;;;6.40;;
50126;SDS011;36024;47.974;16.398;2022-07-29T14:06:55;6.38;;;5.70;;
50126;SDS011;36024;47.974;16.398;2022-07-29T14:09:22;8.57;;;6.43;;
50126;SDS011;36024;47.974;16.398;2022-07-29T14:11:49;7.15;;;6.43;;
50126;SDS011;36024;47.974;16.398;2022-07-29T14:14:17;6.30;;;5.78;;
50126;SDS011;36024;47.974;16.398;2022-07-29T14:16:44;7.03;;;5.90;;
50126;SDS011;36024;47.974;16.398;2022-07-29T14:19:15;6.13;;;5.53;;
50126;SDS011;36024;47.974;16.398;2022-07-29T14:21:42;6.75;;;6.03;;
50126;SDS011;36024;47.974;16.398;2022-07-29T14:24:10;6.75;;;6.05;;
50126;SDS011;36024;47.974;16.398;2022-07-29T14:26:43;6.43;;;5.93;;
50126;SDS011;36024;47.974;16.398;2022-07-29T14:29:11;6.22;;;5.72;;
50126;SDS011;36024;47.974;16.398;2022-07-29T14:31:38;6.25;;;5.65;;
50126;SDS011;36024;47.974;16.398;2022-07-29T14:34:05;6.65;;;6.00;;
50126;SDS011;36024;47.974;16.398;2022-07-29T14:36:31;6.60;;;5.45;;
50126;SDS011;36024;47.974;16.398;2022-07-29T14:38:58;5.85;;;5.30;;
50126;SDS011;36024;47.974;16.398;2022-07-29T14:41:25;6.53;;;6.03;;
50126;SDS011;36024;47.974;16.398;2022-07-29T14:43:54;6.10;;;5.50;;
50126;SDS011;36024;47.974;16.398;2022-07-29T14:46:21;5.82;;;5.32;;
50126;SDS011;36024;47.974;16.398;2022-07-29T14:48:47;6.00;;;5.50;;
50126;SDS011;36024;47.974;16.398;2022-07-29T14:51:14;6.90;;;5.43;;
50126;SDS011;36024;47.974;16.398;2022-07-29T14:53:41;5.45;;;5.05;;
50126;SDS011;36024;47.974;16.398;2022-07-29T14:56:07;5.70;;;5.20;;
50126;SDS011;36024;47.974;16.398;2022-07-29T14:58:55;5.32;;;4.97;;
50126;SDS011;36024;47.974;16.398;2022-07-29T15:01:23;6.00;;;5.30;;
50126;SDS011;36024;47.974;16.398;2022-07-29T15:03:51;5.75;;;5.35;;
50126;SDS011;36024;47.974;16.398;2022-07-29T15:06:24;5.95;;;5.32;;
50126;SDS011;36024;47.974;16.398;2022-07-29T15:08:51;6.00;;;5.60;;
50126;SDS011;36024;47.974;16.398;2022-07-29T15:11:18;5.82;;;5.43;;
50126;SDS011;36024;47.974;16.398;2022-07-29T15:13:44;6.00;;;5.55;;
50126;SDS011;36024;47.974;16.398;2022-07-29T15:16:11;5.88;;;5.43;;
50126;SDS011;36024;47.974;16.398;2022-07-29T15:18:38;5.43;;;5.03;;
50126;SDS011;36024;47.974;16.398;2022-07-29T15:21:04;6.40;;;5.90;;
50126;SDS011;36024;47.974;16.398;2022-07-29T15:23:33;6.35;;;5.70;;
50126;SDS011;36024;47.974;16.398;2022-07-29T15:26:03;6.18;;;5.68;;
50126;SDS011;36024;47.974;16.398;2022-07-29T15:28:30;6.22;;;5.72;;
50126;SDS011;36024;47.974;16.398;2022-07-29T15:30:56;6.40;;;5.90;;
50126;SDS011;36024;47.974;16.398;2022-07-29T15:33:23;5.95;;;5.38;;
50126;SDS011;36024;47.974;16.398;2022-07-29T15:35:50;6.57;;;6.07;;
50126;SDS011;36024;47.974;16.398;2022-07-29T15:38:17;6.85;;;5.65;;
50126;SDS011;36024;47.974;16.398;2022-07-29T15:40:43;6.13;;;5.63;;